Time;durP1;ratioP1;P1;durP2;ratioP2;P2;SDS_P1;SDS_P2;PMS_P1;PMS_P2;Temp;Humidity;BMP_temperature;BMP_pressure;BME280_temperature;BME280_humidity;BME280_pressure;Samples;Min_cycle;Max_cycle;Signal;HPM_P1;HPM_P2
2024/01/26 00:00:44;;;;;;;86.13;40.22;;;10.00;99.90;;;;;;4937889;28;20039;-82
2024/01/26 00:03:10;;;;;;;68.60;34.42;;;10.00;99.90;;;;;;4985171;28;20038;-84
2024/01/26 00:05:36;;;;;;;77.47;37.22;;;10.00;99.90;;;;;;4939104;28;20042;-85
2024/01/26 00:08:03;;;;;;;81.25;39.17;;;10.00;99.90;;;;;;4969193;28;20444;-84
2024/01/26 00:10:30;;;;;;;82.55;39.45;;;10.00;99.90;;;;;;4951672;28;20503;-84
2024/01/26 00:12:56;;;;;;;102.88;46.15;;;10.00;99.90;;;;;;4950746;28;20110;-87
2024/01/26 00:15:22;;;;;;;74.47;35.53;;;10.00;99.90;;;;;;4951370;28;20034;-85
2024/01/26 00:17:49;;;;;;;68.75;33.38;;;10.00;99.90;;;;;;4953197;28;20494;-84
2024/01/26 00:20:15;;;;;;;61.08;30.52;;;10.00;99.90;;;;;;4950121;28;20050;-83
2024/01/26 00:22:41;;;;;;;73.43;35.10;;;10.00;99.90;;;;;;4937805;28;20558;-86
2024/01/26 00:25:08;;;;;;;75.47;36.17;;;10.00;99.90;;;;;;4953723;28;20074;-85
2024/01/26 00:27:35;;;;;;;75.68;37.22;;;10.00;99.90;;;;;;4968906;28;20110;-83
2024/01/26 00:30:02;;;;;;;66.97;33.38;;;10.00;99.90;;;;;;4952773;28;20031;-81
2024/01/26 00:32:28;;;;;;;64.93;33.92;;;10.00;99.90;;;;;;4930795;28;20046;-83
2024/01/26 00:34:54;;;;;;;61.80;31.17;;;10.00;99.90;;;;;;4949269;28;20046;-83
2024/01/26 00:37:21;;;;;;;81.25;38.22;;;10.00;99.90;;;;;;4946520;28;20042;-80
2024/01/26 00:39:47;;;;;;;79.70;38.30;;;10.10;99.90;;;;;;4960972;28;20042;-80
2024/01/26 00:42:13;;;;;;;92.65;43.25;;;10.00;99.90;;;;;;4962925;28;20059;-84
2024/01/26 00:44:40;;;;;;;84.00;39.67;;;10.00;99.90;;;;;;4962360;28;20127;-82
2024/01/26 00:47:06;;;;;;;72.82;35.67;;;10.00;99.90;;;;;;4947959;28;20043;-83
2024/01/26 00:49:32;;;;;;;73.38;36.00;;;10.00;99.90;;;;;;4978338;28;20043;-84
2024/01/26 00:51:59;;;;;;;86.88;40.83;;;10.00;99.90;;;;;;4931194;28;20035;-82
2024/01/26 00:54:25;;;;;;;74.57;37.13;;;10.00;99.90;;;;;;4932808;28;20054;-86
2024/01/26 00:56:51;;;;;;;71.82;34.20;;;10.00;99.90;;;;;;4948579;28;20586;-82
2024/01/26 00:59:19;;;;;;;76.40;35.05;;;10.00;99.90;;;;;;4977793;28;20078;-80
2024/01/26 01:01:45;;;;;;;89.60;42.67;;;10.10;99.90;;;;;;4932290;28;20035;-87
2024/01/26 01:04:11;;;;;;;94.22;41.88;;;10.00;99.90;;;;;;4929237;28;20051;-83
2024/01/26 01:06:38;;;;;;;104.82;47.20;;;10.00;99.90;;;;;;4947402;28;20047;-81
2024/01/26 01:09:05;;;;;;;106.53;47.03;;;10.00;99.90;;;;;;4961534;28;20207;-84
2024/01/26 01:11:31;;;;;;;80.95;42.03;;;10.00;99.90;;;;;;4962308;28;20761;-80
2024/01/26 01:13:57;;;;;;;99.88;45.38;;;10.00;99.90;;;;;;4963371;28;20031;-82
2024/01/26 01:16:24;;;;;;;91.50;42.85;;;10.00;99.90;;;;;;4951658;28;20658;-85
2024/01/26 01:18:50;;;;;;;85.68;42.00;;;10.00;99.90;;;;;;4968153;28;20498;-86
2024/01/26 01:21:16;;;;;;;113.35;48.95;;;10.10;99.90;;;;;;4967842;28;20023;-88
2024/01/26 01:23:43;;;;;;;122.43;52.22;;;10.00;99.90;;;;;;4968007;28;20038;-83
2024/01/26 01:26:09;;;;;;;88.53;45.05;;;10.10;99.90;;;;;;4965410;28;20035;-85
2024/01/26 01:28:36;;;;;;;90.85;44.58;;;10.10;99.90;;;;;;4951045;28;20035;-85
2024/01/26 01:31:02;;;;;;;93.35;44.42;;;10.00;99.90;;;;;;4950021;28;20048;-85
2024/01/26 01:33:29;;;;;;;70.03;37.55;;;10.10;99.90;;;;;;4939537;28;20031;-84
2024/01/26 01:35:55;;;;;;;93.38;46.20;;;10.00;99.90;;;;;;4954919;28;20027;-88
2024/01/26 01:38:21;;;;;;;99.13;47.63;;;10.10;99.90;;;;;;4957804;28;20043;-87
2024/01/26 01:40:48;;;;;;;74.85;41.30;;;10.00;99.90;;;;;;4953986;28;20043;-84
2024/01/26 01:43:16;;;;;;;80.03;40.78;;;10.10;99.90;;;;;;4953772;28;20047;-84
2024/01/26 01:45:43;;;;;;;89.75;42.60;;;10.10;99.90;;;;;;4986849;28;20492;-84
2024/01/26 01:48:09;;;;;;;74.47;37.63;;;10.10;99.90;;;;;;4938808;28;20039;-87
2024/01/26 01:50:35;;;;;;;85.10;41.13;;;10.10;99.90;;;;;;4951631;28;20070;-86
2024/01/26 01:53:07;;;;;;;90.15;42.75;;;10.00;99.90;;;;;;4938497;28;20036;-86
2024/01/26 01:55:34;;;;;;;89.50;44.03;;;10.00;99.90;;;;;;4952235;28;20039;-83
2024/01/26 01:58:00;;;;;;;77.05;39.70;;;10.00;99.90;;;;;;4968626;28;20498;-84
2024/01/26 02:00:27;;;;;;;87.78;41.30;;;10.10;99.90;;;;;;4969276;28;20035;-86
2024/01/26 02:02:53;;;;;;;83.63;41.50;;;10.10;99.90;;;;;;4969238;28;20474;-87
2024/01/26 02:05:19;;;;;;;66.30;36.22;;;10.10;99.90;;;;;;4969805;28;20031;-84
2024/01/26 02:07:50;;;;;;;74.43;37.75;;;10.10;99.90;;;;;;4953876;28;20043;-85
2024/01/26 02:10:17;;;;;;;86.43;41.50;;;10.10;99.90;;;;;;4952941;28;20368;-86
2024/01/26 02:12:44;;;;;;;80.18;42.05;;;10.10;99.90;;;;;;4968826;28;20406;-84
2024/01/26 02:15:10;;;;;;;76.35;37.83;;;10.10;99.90;;;;;;4953371;28;20039;-86
2024/01/26 02:17:39;;;;;;;69.25;37.25;;;10.10;99.90;;;;;;4969093;28;20031;-85
2024/01/26 02:20:06;;;;;;;67.60;35.05;;;10.10;99.90;;;;;;4971034;28;20047;-80
2024/01/26 02:22:33;;;;;;;64.13;33.00;;;10.10;99.90;;;;;;4973337;28;20031;-86
2024/01/26 02:25:00;;;;;;;84.63;38.95;;;10.10;99.90;;;;;;4942872;28;20031;-85
2024/01/26 02:27:26;;;;;;;68.18;34.90;;;10.20;99.90;;;;;;4942744;28;20027;-85
2024/01/26 02:29:53;;;;;;;60.72;32.47;;;10.10;99.90;;;;;;4956771;28;20050;-81
2024/01/26 02:32:19;;;;;;;59.95;29.85;;;10.10;99.90;;;;;;4941323;28;20510;-87
2024/01/26 02:34:45;;;;;;;59.33;31.35;;;10.20;99.90;;;;;;4956679;28;20038;-88
2024/01/26 02:37:12;;;;;;;77.93;36.50;;;10.20;99.90;;;;;;4942275;28;20037;-83
2024/01/26 02:39:38;;;;;;;65.50;31.08;;;10.20;99.90;;;;;;4972237;28;20067;-84
2024/01/26 02:42:05;;;;;;;73.55;34.28;;;10.10;99.90;;;;;;4955559;28;20047;-88
2024/01/26 02:44:33;;;;;;;65.95;33.88;;;10.10;99.90;;;;;;4956370;28;20384;-85
2024/01/26 02:46:59;;;;;;;70.05;34.20;;;10.20;99.90;;;;;;4974200;28;20035;-77
2024/01/26 02:49:28;;;;;;;56.60;28.88;;;10.20;99.90;;;;;;4973234;28;20516;-85
2024/01/26 02:51:54;;;;;;;53.60;26.45;;;10.20;99.90;;;;;;4955165;28;20426;-87
2024/01/26 02:54:21;;;;;;;60.33;28.98;;;10.20;99.90;;;;;;4973724;28;20584;-80
2024/01/26 02:56:47;;;;;;;48.78;27.63;;;10.20;99.90;;;;;;4941213;28;20609;-79
2024/01/26 02:59:13;;;;;;;76.35;35.20;;;10.20;99.90;;;;;;4972436;28;20511;-83
2024/01/26 03:01:40;;;;;;;66.28;32.30;;;10.10;99.90;;;;;;4941959;28;20027;-81
2024/01/26 03:04:06;;;;;;;70.47;36.42;;;10.20;99.90;;;;;;4972732;28;20506;-87
2024/01/26 03:06:32;;;;;;;58.85;30.42;;;10.20;99.90;;;;;;4973287;28;20078;-81
2024/01/26 03:08:59;;;;;;;57.95;29.98;;;10.20;99.90;;;;;;4956514;28;20431;-86
2024/01/26 03:11:41;;;;;;;44.65;25.75;;;10.10;99.90;;;;;;4973300;28;20035;-87
2024/01/26 03:14:08;;;;;;;48.72;26.27;;;10.20;99.90;;;;;;4971892;28;20054;-87
2024/01/26 03:16:38;;;;;;;55.92;27.83;;;10.20;99.90;;;;;;4973070;28;20027;-86
2024/01/26 03:19:04;;;;;;;57.00;29.17;;;10.20;99.90;;;;;;4972654;28;20047;-88
2024/01/26 03:21:31;;;;;;;49.58;26.60;;;10.20;99.90;;;;;;4972393;28;20039;-85
2024/01/26 03:23:57;;;;;;;45.67;24.75;;;10.20;99.90;;;;;;4953212;28;20035;-86
2024/01/26 03:26:24;;;;;;;46.70;25.40;;;10.20;99.90;;;;;;4973012;28;20050;-85
2024/01/26 03:28:51;;;;;;;40.85;21.92;;;10.20;99.90;;;;;;4954383;28;20391;-87
2024/01/26 03:31:18;;;;;;;43.30;23.23;;;10.20;99.90;;;;;;4989044;28;20050;-87
2024/01/26 03:33:45;;;;;;;41.97;23.95;;;10.20;99.90;;;;;;4957145;28;20058;-82
2024/01/26 03:36:12;;;;;;;40.70;22.38;;;10.20;99.90;;;;;;4975528;28;20044;-88
2024/01/26 03:38:39;;;;;;;45.80;24.38;;;10.20;99.90;;;;;;4958492;28;20043;-84
2024/01/26 03:41:05;;;;;;;41.28;22.65;;;10.20;99.90;;;;;;4957464;28;20391;-88
2024/01/26 03:43:32;;;;;;;42.38;21.85;;;10.20;99.90;;;;;;4941567;28;20501;-84
2024/01/26 03:45:58;;;;;;;38.35;22.48;;;10.20;99.90;;;;;;4957245;28;20054;-86
2024/01/26 03:48:24;;;;;;;38.75;22.40;;;10.20;99.90;;;;;;4955797;28;20043;-87
2024/01/26 03:50:51;;;;;;;35.72;20.27;;;10.20;99.90;;;;;;4955674;28;20039;-82
2024/01/26 03:53:17;;;;;;;43.60;23.42;;;10.30;99.90;;;;;;4971976;28;20256;-86
2024/01/26 03:55:44;;;;;;;39.80;23.02;;;10.20;99.90;;;;;;4971510;28;20035;-85
2024/01/26 03:58:10;;;;;;;37.83;21.20;;;10.30;99.90;;;;;;4939472;28;20616;-88
2024/01/26 04:00:36;;;;;;;30.52;18.50;;;10.30;99.90;;;;;;4972240;28;20039;-84
2024/01/26 04:03:03;;;;;;;28.38;17.23;;;10.30;99.90;;;;;;4970854;28;20050;-86
2024/01/26 04:05:29;;;;;;;27.75;17.30;;;10.30;99.90;;;;;;4972066;28;20038;-89
2024/01/26 04:07:55;;;;;;;29.85;16.70;;;10.30;99.90;;;;;;4956073;28;20039;-85
2024/01/26 04:10:22;;;;;;;35.03;18.90;;;10.30;99.90;;;;;;4971813;28;20585;-87
2024/01/26 04:12:48;;;;;;;31.10;17.83;;;10.30;99.90;;;;;;4971101;28;20068;-85
2024/01/26 04:15:14;;;;;;;27.95;17.95;;;10.30;99.90;;;;;;4938702;28;20046;-89
2024/01/26 04:17:41;;;;;;;29.08;17.17;;;10.40;99.90;;;;;;4939389;28;20035;-88
2024/01/26 04:20:07;;;;;;;29.77;17.15;;;10.40;99.90;;;;;;4970989;28;20275;-86
2024/01/26 04:22:34;;;;;;;28.50;17.42;;;10.40;99.90;;;;;;4954067;28;20070;-85
2024/01/26 04:25:01;;;;;;;27.02;16.10;;;10.40;99.90;;;;;;4954825;28;20043;-88
2024/01/26 04:27:28;;;;;;;25.02;15.60;;;10.40;99.90;;;;;;4955119;28;20039;-81
2024/01/26 04:29:54;;;;;;;29.13;17.67;;;10.30;99.90;;;;;;4940638;28;20058;-86
2024/01/26 04:32:21;;;;;;;28.58;15.35;;;10.40;99.90;;;;;;4970559;28;20031;-86
2024/01/26 04:34:47;;;;;;;25.02;15.25;;;10.40;99.90;;;;;;4971104;28;20587;-82
2024/01/26 04:37:13;;;;;;;21.90;14.40;;;10.40;99.90;;;;;;4953834;28;20043;-89
2024/01/26 04:39:41;;;;;;;25.92;16.73;;;10.40;99.90;;;;;;4969609;28;20043;-78
2024/01/26 04:42:08;;;;;;;22.65;16.65;;;10.40;99.90;;;;;;4969950;28;20035;-86
2024/01/26 04:44:37;;;;;;;24.48;16.50;;;10.40;99.90;;;;;;4953459;28;20035;-90
2024/01/26 04:47:04;;;;;;;26.38;17.20;;;10.40;99.90;;;;;;4971032;28;20043;-87
2024/01/26 04:49:30;;;;;;;20.58;14.52;;;10.40;99.90;;;;;;4937959;28;20066;-86
2024/01/26 04:51:56;;;;;;;25.83;15.07;;;10.40;99.90;;;;;;4987129;28;20031;-83
2024/01/26 04:54:23;;;;;;;28.92;16.58;;;10.40;99.90;;;;;;4938265;28;20338;-83
2024/01/26 04:56:49;;;;;;;22.23;14.93;;;10.40;99.90;;;;;;4954020;28;20394;-89
2024/01/26 04:59:15;;;;;;;25.23;16.27;;;10.40;99.90;;;;;;4954709;28;20051;-89
2024/01/26 05:01:42;;;;;;;22.10;15.15;;;10.40;99.90;;;;;;4971529;28;20514;-86
2024/01/26 05:04:08;;;;;;;21.15;14.77;;;10.40;99.90;;;;;;4971093;28;20043;-84
2024/01/26 05:06:35;;;;;;;21.20;13.55;;;10.50;99.90;;;;;;4983076;28;20570;-83
2024/01/26 05:09:01;;;;;;;25.00;15.75;;;10.50;99.90;;;;;;4987310;28;20047;-91
2024/01/26 05:11:28;;;;;;;19.27;13.52;;;10.50;99.90;;;;;;4954520;28;20042;-90
2024/01/26 05:13:54;;;;;;;25.27;15.13;;;10.50;99.90;;;;;;4970584;28;20031;-88
2024/01/26 05:16:21;;;;;;;24.02;15.27;;;10.50;99.90;;;;;;4939290;28;20494;-88
2024/01/26 05:18:47;;;;;;;24.42;15.63;;;10.50;99.90;;;;;;4938138;28;20047;-83
2024/01/26 05:21:13;;;;;;;23.00;15.68;;;10.50;99.90;;;;;;4939370;28;20046;-87
2024/01/26 05:23:41;;;;;;;27.77;17.40;;;10.50;99.90;;;;;;4953918;28;20453;-83
2024/01/26 05:26:07;;;;;;;25.08;16.90;;;10.50;99.90;;;;;;4952300;28;20540;-80
2024/01/26 05:28:35;;;;;;;21.65;15.02;;;10.50;99.90;;;;;;4953827;28;20039;-88
2024/01/26 05:31:01;;;;;;;22.63;15.60;;;10.50;99.90;;;;;;4971543;28;20039;-88
2024/01/26 05:33:28;;;;;;;36.38;20.17;;;10.50;99.90;;;;;;4942105;28;20039;-85
2024/01/26 05:35:54;;;;;;;27.70;17.98;;;10.50;99.90;;;;;;4939322;28;20047;-80
2024/01/26 05:38:20;;;;;;;29.25;18.23;;;10.50;99.90;;;;;;4954720;28;20039;-88
2024/01/26 05:40:47;;;;;;;27.02;18.60;;;10.50;99.90;;;;;;4969445;28;20039;-88
2024/01/26 05:43:13;;;;;;;23.83;17.17;;;10.50;99.90;;;;;;4970251;28;20043;-84
2024/01/26 05:45:40;;;;;;;28.98;18.58;;;10.50;99.90;;;;;;4951713;28;20039;-87
2024/01/26 05:48:06;;;;;;;24.48;17.35;;;10.50;99.90;;;;;;4953377;28;20073;-79
2024/01/26 05:50:33;;;;;;;25.45;17.30;;;10.50;99.90;;;;;;4952967;28;20046;-89
2024/01/26 05:52:59;;;;;;;24.98;16.63;;;10.50;99.90;;;;;;4968180;28;20407;-86
2024/01/26 05:55:25;;;;;;;30.15;19.90;;;10.50;99.90;;;;;;4974635;28;20035;-86
2024/01/26 05:57:52;;;;;;;28.25;18.63;;;10.50;99.90;;;;;;4975212;28;20047;-86
2024/01/26 06:00:18;;;;;;;26.17;17.77;;;10.60;99.90;;;;;;4975236;28;20039;-85
2024/01/26 06:02:48;;;;;;;29.02;20.23;;;10.60;99.90;;;;;;4942144;28;20031;-84
2024/01/26 06:05:17;;;;;;;36.42;22.65;;;10.50;99.90;;;;;;4940903;28;20039;-85
2024/01/26 06:07:43;;;;;;;30.40;20.67;;;10.60;99.90;;;;;;4953247;28;20407;-85
2024/01/26 06:10:09;;;;;;;34.33;22.52;;;10.50;99.90;;;;;;4972978;28;20039;-87
2024/01/26 06:12:40;;;;;;;33.92;22.83;;;10.50;99.90;;;;;;4973957;28;20046;-84
2024/01/26 06:15:10;;;;;;;33.33;20.70;;;10.50;99.90;;;;;;4941177;28;20119;-79
2024/01/26 06:17:36;;;;;;;36.28;24.70;;;10.50;99.90;;;;;;4943533;28;20031;-87
2024/01/26 06:20:05;;;;;;;29.27;22.20;;;10.50;99.90;;;;;;4959691;28;20487;-81
2024/01/26 06:22:32;;;;;;;29.90;22.45;;;10.50;99.90;;;;;;4954727;28;20506;-88
2024/01/26 06:24:58;;;;;;;30.85;22.17;;;10.50;99.90;;;;;;4975818;28;20065;-86
2024/01/26 06:27:24;;;;;;;29.27;20.33;;;10.50;99.90;;;;;;4958978;28;20035;-85
2024/01/26 06:29:51;;;;;;;29.65;20.30;;;10.50;99.90;;;;;;4959378;28;22323;-89
2024/01/26 06:32:19;;;;;;;29.13;20.75;;;10.40;99.90;;;;;;4943549;28;20038;-84
2024/01/26 06:34:46;;;;;;;27.05;20.65;;;10.40;99.90;;;;;;4957842;28;20031;-82
2024/01/26 06:37:13;;;;;;;29.27;23.27;;;10.40;99.90;;;;;;4971132;28;20050;-89
2024/01/26 06:39:39;;;;;;;28.80;20.05;;;10.40;99.90;;;;;;4956623;28;20055;-83
2024/01/26 06:42:05;;;;;;;24.20;19.25;;;10.40;99.90;;;;;;4940284;28;20031;-87
2024/01/26 06:44:34;;;;;;;26.27;17.75;;;10.40;99.90;;;;;;4942484;28;20720;-82
2024/01/26 06:47:00;;;;;;;29.77;21.05;;;10.40;99.90;;;;;;4939312;28;20028;-86
2024/01/26 06:49:27;;;;;;;31.70;22.73;;;10.30;99.90;;;;;;4973165;28;20656;-88
2024/01/26 06:51:53;;;;;;;30.63;20.48;;;10.30;99.90;;;;;;4972942;28;20039;-81
2024/01/26 06:54:20;;;;;;;29.67;20.98;;;10.30;99.90;;;;;;4987248;28;20035;-85
2024/01/26 06:56:46;;;;;;;24.40;17.92;;;10.30;99.90;;;;;;4955829;28;20050;-86
2024/01/26 06:59:12;;;;;;;22.23;17.52;;;10.30;99.90;;;;;;4972894;28;20047;-85
2024/01/26 07:01:39;;;;;;;25.77;18.02;;;10.30;99.90;;;;;;4952840;28;20031;-85
2024/01/26 07:04:05;;;;;;;30.40;20.75;;;10.30;99.90;;;;;;4972870;28;20042;-85
2024/01/26 07:06:32;;;;;;;29.08;19.65;;;10.30;99.90;;;;;;4970249;28;20799;-85
2024/01/26 07:08:58;;;;;;;27.02;20.10;;;10.30;99.90;;;;;;4939416;28;20042;-85
2024/01/26 07:11:25;;;;;;;30.50;19.95;;;10.30;99.90;;;;;;4972199;28;20035;-86
2024/01/26 07:13:52;;;;;;;29.45;18.75;;;10.30;99.90;;;;;;4952987;28;20035;-88
2024/01/26 07:16:19;;;;;;;22.02;16.92;;;10.30;99.90;;;;;;4955257;28;20050;-83
2024/01/26 07:18:45;;;;;;;25.25;17.10;;;10.30;99.90;;;;;;4938973;28;20035;-91
2024/01/26 07:21:12;;;;;;;28.23;18.77;;;10.30;99.90;;;;;;4957219;28;20035;-90
2024/01/26 07:23:40;;;;;;;21.83;16.13;;;10.30;99.90;;;;;;4957198;28;20317;-86
2024/01/26 07:26:07;;;;;;;22.75;15.45;;;10.30;99.90;;;;;;4974761;28;20642;-85
2024/01/26 07:28:33;;;;;;;27.63;17.25;;;10.40;99.90;;;;;;4944339;28;20039;-78
2024/01/26 07:30:59;;;;;;;25.85;17.27;;;10.40;99.90;;;;;;4990440;28;20046;-84
2024/01/26 07:33:26;;;;;;;23.83;15.90;;;10.40;99.90;;;;;;4972942;28;20506;-83
2024/01/26 07:35:52;;;;;;;20.08;15.30;;;10.40;99.90;;;;;;4941813;28;20046;-85
2024/01/26 07:38:19;;;;;;;21.08;15.30;;;10.40;99.90;;;;;;4971581;28;20039;-87
2024/01/26 07:40:45;;;;;;;24.55;17.33;;;10.40;99.90;;;;;;4971052;28;20070;-85
2024/01/26 07:43:11;;;;;;;26.20;17.70;;;10.40;99.90;;;;;;4937152;28;20045;-89
2024/01/26 07:45:38;;;;;;;24.05;17.30;;;10.40;99.90;;;;;;4953546;28;20047;-87
2024/01/26 07:48:04;;;;;;;23.95;17.58;;;10.40;99.90;;;;;;4969956;28;20047;-87
2024/01/26 07:50:31;;;;;;;30.98;18.40;;;10.40;99.90;;;;;;4970536;28;20042;-79
2024/01/26 07:52:57;;;;;;;27.55;17.80;;;10.40;99.90;;;;;;4953088;28;21752;-83
2024/01/26 07:55:24;;;;;;;25.45;17.08;;;10.50;99.90;;;;;;4967278;28;20027;-88
2024/01/26 07:57:50;;;;;;;28.67;18.42;;;10.50;99.90;;;;;;4969895;28;20042;-87
2024/01/26 08:00:18;;;;;;;28.10;18.10;;;10.50;99.90;;;;;;4969747;28;20046;-79
2024/01/26 08:02:45;;;;;;;23.88;17.27;;;10.50;99.90;;;;;;4969096;28;20430;-85
2024/01/26 08:05:11;;;;;;;29.08;18.83;;;10.50;99.90;;;;;;4938933;28;20031;-87
2024/01/26 08:07:37;;;;;;;31.17;20.88;;;10.50;99.90;;;;;;4938570;28;20038;-90
2024/01/26 08:10:04;;;;;;;29.45;19.30;;;10.50;99.90;;;;;;4949331;28;20032;-85
2024/01/26 08:12:30;;;;;;;28.67;20.23;;;10.50;99.90;;;;;;4968910;28;20039;-87
2024/01/26 08:14:57;;;;;;;35.20;20.67;;;10.60;99.90;;;;;;4951706;28;20058;-89
2024/01/26 08:17:23;;;;;;;29.30;20.13;;;10.60;99.90;;;;;;4969076;28;20031;-87
2024/01/26 08:19:50;;;;;;;29.70;19.60;;;10.60;99.90;;;;;;4970482;28;20525;-85
2024/01/26 08:22:18;;;;;;;29.55;19.77;;;10.60;99.90;;;;;;4969990;28;20050;-86
2024/01/26 08:24:44;;;;;;;35.65;23.52;;;10.70;99.90;;;;;;4940621;28;20035;-85
2024/01/26 08:27:10;;;;;;;33.97;22.40;;;10.70;99.90;;;;;;4969976;28;20046;-81
2024/01/26 08:29:38;;;;;;;36.97;23.95;;;10.70;99.90;;;;;;4951859;28;20031;-83
2024/01/26 08:32:05;;;;;;;33.00;23.00;;;10.70;99.90;;;;;;4951170;28;20498;-83
2024/01/26 08:34:31;;;;;;;37.47;24.65;;;10.70;99.90;;;;;;4952824;28;20050;-83
2024/01/26 08:36:57;;;;;;;33.00;24.35;;;10.70;99.90;;;;;;4968084;28;20038;-84
2024/01/26 08:39:24;;;;;;;35.60;24.23;;;10.80;99.90;;;;;;4952653;28;20536;-85
2024/01/26 08:41:50;;;;;;;31.95;22.95;;;10.80;99.90;;;;;;4952603;28;20039;-83
2024/01/26 08:44:17;;;;;;;34.13;24.40;;;10.80;99.90;;;;;;4969550;28;20043;-84
2024/01/26 08:46:44;;;;;;;32.20;24.48;;;10.80;99.90;;;;;;4967042;28;20039;-87
2024/01/26 08:49:11;;;;;;;37.30;25.30;;;10.80;99.90;;;;;;4970322;28;20436;-84
2024/01/26 08:51:37;;;;;;;36.53;25.35;;;10.80;99.90;;;;;;4952706;28;20046;-84
2024/01/26 08:54:03;;;;;;;38.78;26.73;;;10.90;99.90;;;;;;4968352;28;20101;-79
2024/01/26 08:56:30;;;;;;;41.63;28.48;;;10.90;99.90;;;;;;4970772;28;20031;-88
2024/01/26 08:58:56;;;;;;;36.15;28.55;;;10.90;99.90;;;;;;4985818;28;20078;-85
2024/01/26 09:01:24;;;;;;;41.85;28.40;;;10.90;99.90;;;;;;4934484;28;20533;-83
2024/01/26 09:03:50;;;;;;;36.78;26.77;;;10.90;99.90;;;;;;4966020;28;20049;-80
2024/01/26 09:06:17;;;;;;;40.70;28.92;;;10.90;99.90;;;;;;4933839;28;20039;-83
2024/01/26 09:08:43;;;;;;;37.67;26.10;;;10.90;99.90;;;;;;4952309;28;20039;-84
2024/01/26 09:11:09;;;;;;;36.20;26.33;;;10.90;99.90;;;;;;4934048;28;20050;-88
2024/01/26 09:13:36;;;;;;;35.55;26.08;;;10.90;99.90;;;;;;4967731;28;20485;-79
2024/01/26 09:16:02;;;;;;;34.45;25.40;;;10.90;99.90;;;;;;4967630;28;20038;-82
2024/01/26 09:18:28;;;;;;;31.17;23.05;;;10.90;99.90;;;;;;4952124;28;20502;-86
2024/01/26 09:20:55;;;;;;;27.73;20.88;;;10.90;99.90;;;;;;4933853;28;20066;-83
2024/01/26 09:23:21;;;;;;;26.25;18.27;;;10.90;99.90;;;;;;4951886;28;20035;-83
2024/01/26 09:25:47;;;;;;;25.23;17.17;;;11.00;99.90;;;;;;4972864;28;20039;-84
2024/01/26 09:28:14;;;;;;;20.00;14.95;;;11.00;99.90;;;;;;4938477;28;20047;-84
2024/01/26 09:30:40;;;;;;;24.90;14.45;;;11.00;99.90;;;;;;4969366;28;20350;-86
2024/01/26 09:33:06;;;;;;;18.23;10.68;;;11.00;99.90;;;;;;4970230;28;20040;-87
2024/01/26 09:35:33;;;;;;;14.05;7.80;;;11.00;99.90;;;;;;4936395;28;20135;-90
2024/01/26 09:37:59;;;;;;;11.25;5.43;;;11.00;99.90;;;;;;4936463;28;20039;-81
2024/01/26 09:40:28;;;;;;;7.38;2.88;;;11.00;99.90;;;;;;4967491;28;20410;-85
2024/01/26 09:42:55;;;;;;;7.65;1.98;;;10.90;99.90;;;;;;4967894;28;20399;-79
2024/01/26 09:45:22;;;;;;;9.00;2.00;;;10.90;99.90;;;;;;4983827;28;20391;-86
2024/01/26 09:47:52;;;;;;;9.52;1.50;;;10.80;99.90;;;;;;4950560;28;20397;-84
2024/01/26 09:50:23;;;;;;;7.07;1.40;;;10.70;99.90;;;;;;4983657;28;20039;-86
2024/01/26 09:52:50;;;;;;;10.00;1.70;;;10.70;99.90;;;;;;4967233;28;20039;-84
2024/01/26 09:55:18;;;;;;;10.70;1.33;;;10.60;99.90;;;;;;4951572;28;20032;-85
2024/01/26 09:57:45;;;;;;;10.10;1.58;;;10.50;99.90;;;;;;4951051;28;20060;-80
2024/01/26 10:00:12;;;;;;;5.63;0.98;;;10.40;99.90;;;;;;4950808;28;20047;-83
2024/01/26 10:02:43;;;;;;;5.20;0.82;;;10.20;99.90;;;;;;4967162;28;20686;-89
2024/01/26 10:05:10;;;;;;;8.10;0.80;;;10.00;99.90;;;;;;4968918;28;20959;-91
2024/01/26 10:07:37;;;;;;;6.13;0.70;;;9.80;99.90;;;;;;4935343;28;20039;-88
2024/01/26 10:10:05;;;;;;;5.47;0.77;;;9.60;99.90;;;;;;4964842;28;20051;-85
2024/01/26 10:12:34;;;;;;;7.93;0.60;;;9.40;99.90;;;;;;4936916;28;20039;-87
2024/01/26 10:15:09;;;;;;;7.53;0.57;;;9.20;99.90;;;;;;4950320;28;20958;-83
2024/01/26 10:17:36;;;;;;;6.35;0.60;;;9.10;99.90;;;;;;4964782;28;20043;-86
2024/01/26 10:20:14;;;;;;;7.47;0.70;;;9.00;99.90;;;;;;4967705;28;20062;-82
2024/01/26 10:22:42;;;;;;;4.57;0.50;;;8.90;99.90;;;;;;4950994;28;20047;-86
2024/01/26 10:25:09;;;;;;;4.15;0.65;;;8.90;99.90;;;;;;4968194;28;20035;-86
2024/01/26 10:27:35;;;;;;;6.47;0.70;;;8.80;99.90;;;;;;4967765;28;20043;-82
2024/01/26 10:30:03;;;;;;;7.45;0.70;;;8.80;99.90;;;;;;4935984;28;20039;-83
2024/01/26 10:32:30;;;;;;;6.20;0.63;;;8.80;99.90;;;;;;4967176;28;20034;-89
2024/01/26 10:35:04;;;;;;;9.73;0.98;;;8.80;99.90;;;;;;4936403;28;20031;-78
2024/01/26 10:37:34;;;;;;;14.00;1.83;;;8.80;99.90;;;;;;4967836;28;20039;-92
2024/01/26 10:40:04;;;;;;;13.05;2.22;;;8.80;99.90;;;;;;4965859;28;20055;-86
2024/01/26 10:42:31;;;;;;;13.73;1.73;;;8.80;99.90;;;;;;4953896;28;20055;-80
2024/01/26 10:45:00;;;;;;;8.23;1.40;;;9.00;99.90;;;;;;4937126;28;20046;-87
2024/01/26 10:47:27;;;;;;;16.17;1.75;;;9.20;99.90;;;;;;4972613;28;20375;-88
2024/01/26 10:49:55;;;;;;;16.52;2.97;;;9.40;99.90;;;;;;4970753;28;20773;-85
2024/01/26 10:52:22;;;;;;;13.82;2.35;;;9.70;99.90;;;;;;4971662;28;20047;-88
2024/01/26 10:54:50;;;;;;;12.02;1.52;;;10.00;99.90;;;;;;4972241;28;20073;-80
2024/01/26 10:57:19;;;;;;;18.13;2.63;;;10.20;99.90;;;;;;4938216;28;20031;-87
2024/01/26 10:59:47;;;;;;;8.77;1.40;;;10.10;99.90;;;;;;4954502;28;20054;-87
2024/01/26 11:02:16;;;;;;;12.48;1.10;;;10.00;99.90;;;;;;4969209;28;20406;-86
2024/01/26 11:04:44;;;;;;;10.15;1.38;;;9.90;99.90;;;;;;4938455;28;20513;-84
2024/01/26 11:07:11;;;;;;;11.27;1.95;;;9.80;99.90;;;;;;4956644;28;20057;-83
2024/01/26 11:09:41;;;;;;;14.10;1.38;;;9.70;99.90;;;;;;4939728;28;20031;-87
2024/01/26 11:12:22;;;;;;;10.73;1.00;;;9.60;99.90;;;;;;4970483;28;20035;-87
2024/01/26 11:15:09;;;;;;;10.50;1.05;;;9.50;99.90;;;;;;4986822;28;20039;-83
2024/01/26 11:17:52;;;;;;;9.00;1.33;;;9.50;99.90;;;;;;4951760;28;20035;-87
2024/01/26 11:20:29;;;;;;;11.75;1.70;;;9.50;99.90;;;;;;4979721;28;20031;-85
2024/01/26 11:23:03;;;;;;;12.65;1.42;;;9.40;99.90;;;;;;4943385;28;20042;-86
2024/01/26 11:25:35;;;;;;;10.73;1.13;;;9.40;99.90;;;;;;4974562;28;20055;-84
2024/01/26 11:28:02;;;;;;;12.10;1.25;;;9.40;99.90;;;;;;4924607;29;20035;-89
2024/01/26 11:30:29;;;;;;;10.60;1.52;;;9.30;99.90;;;;;;4939555;28;20039;-88
2024/01/26 11:32:57;;;;;;;12.27;1.35;;;9.20;99.90;;;;;;4952471;28;21505;-77
2024/01/26 11:35:24;;;;;;;10.88;1.00;;;9.30;99.90;;;;;;4955068;28;20650;-84
2024/01/26 11:37:52;;;;;;;12.65;1.52;;;9.30;99.90;;;;;;4970149;28;20034;-84
2024/01/26 11:40:23;;;;;;;9.80;1.17;;;9.40;99.90;;;;;;4940194;28;22234;-87
2024/01/26 11:42:51;;;;;;;7.45;1.13;;;9.40;99.90;;;;;;4957937;28;20050;-87
2024/01/26 11:45:42;;;;;;;12.27;1.67;;;9.50;99.90;;;;;;4973151;28;20034;-85
2024/01/26 11:48:10;;;;;;;9.32;1.30;;;9.50;99.90;;;;;;4971760;28;20345;-83
2024/01/26 11:50:38;;;;;;;15.50;1.65;;;9.40;99.90;;;;;;4938933;28;20051;-86
2024/01/26 11:53:05;;;;;;;12.32;1.48;;;9.40;99.90;;;;;;4939218;28;20435;-87
2024/01/26 11:55:32;;;;;;;17.52;2.20;;;9.40;99.90;;;;;;4956558;28;20046;-81
2024/01/26 11:57:58;;;;;;;13.20;1.42;;;9.40;99.90;;;;;;4940346;28;20413;-89
2024/01/26 12:00:29;;;;;;;12.23;1.13;;;9.30;99.90;;;;;;4972851;28;20035;-90
2024/01/26 12:02:56;;;;;;;13.98;1.08;;;9.40;99.90;;;;;;4956661;28;20042;-86
2024/01/26 12:05:22;;;;;;;15.00;1.35;;;9.30;99.90;;;;;;4924401;29;20035;-91
2024/01/26 12:07:49;;;;;;;11.27;1.52;;;9.40;99.90;;;;;;4956491;28;20042;-81
2024/01/26 12:10:17;;;;;;;16.25;2.35;;;9.40;99.90;;;;;;4971834;28;20050;-86
2024/01/26 12:12:44;;;;;;;12.93;1.58;;;9.30;99.90;;;;;;4956435;28;20031;-86
2024/01/26 12:15:11;;;;;;;12.13;1.92;;;9.30;99.90;;;;;;4973339;28;20297;-91
2024/01/26 12:17:37;;;;;;;11.80;2.38;;;9.30;99.90;;;;;;4936755;28;22469;-90
2024/01/26 12:20:09;;;;;;;16.42;1.65;;;9.30;99.90;;;;;;4956367;28;20418;-89
2024/01/26 12:22:36;;;;;;;12.30;1.20;;;9.40;99.90;;;;;;4974581;28;20039;-87
2024/01/26 12:25:05;;;;;;;16.98;1.45;;;9.30;99.90;;;;;;4956896;28;20631;-84
2024/01/26 12:27:32;;;;;;;10.45;1.98;;;9.30;99.90;;;;;;4975441;28;20035;-83
2024/01/26 12:29:58;;;;;;;17.55;1.33;;;9.20;99.90;;;;;;4969788;28;20039;-83